sensor_id;sensor_type;location;lat;lon;timestamp;temperature;humidity
7476;DHT22;3779;49.216;8.650;2023-02-28T00:02:41;17.20;25.00
7476;DHT22;3779;49.216;8.650;2023-02-28T00:05:57;17.20;24.80
7476;DHT22;3779;49.216;8.650;2023-02-28T00:09:43;17.20;26.30
7476;DHT22;3779;49.216;8.650;2023-02-28T00:12:40;17.30;24.60
7476;DHT22;3779;49.216;8.650;2023-02-28T00:15:44;17.20;24.50
7476;DHT22;3779;49.216;8.650;2023-02-28T00:19:23;17.20;24.80
7476;DHT22;3779;49.216;8.650;2023-02-28T00:22:13;17.20;24.60
7476;DHT22;3779;49.216;8.650;2023-02-28T00:25:08;17.20;24.70
7476;DHT22;3779;49.216;8.650;2023-02-28T00:27:58;17.20;24.90
7476;DHT22;3779;49.216;8.650;2023-02-28T00:30:47;17.20;24.60
7476;DHT22;3779;49.216;8.650;2023-02-28T00:33:33;17.30;24.60
7476;DHT22;3779;49.216;8.650;2023-02-28T00:36:21;17.20;24.40
7476;DHT22;3779;49.216;8.650;2023-02-28T00:39:09;17.20;24.90
7476;DHT22;3779;49.216;8.650;2023-02-28T00:41:55;17.50;25.50
7476;DHT22;3779;49.216;8.650;2023-02-28T00:44:50;17.20;24.60
7476;DHT22;3779;49.216;8.650;2023-02-28T00:47:40;17.30;24.30
7476;DHT22;3779;49.216;8.650;2023-02-28T00:50:49;17.30;25.20
7476;DHT22;3779;49.216;8.650;2023-02-28T00:53:50;17.20;25.60
7476;DHT22;3779;49.216;8.650;2023-02-28T00:56:50;17.20;26.40
7476;DHT22;3779;49.216;8.650;2023-02-28T00:59:40;17.20;24.80
7476;DHT22;3779;49.216;8.650;2023-02-28T01:02:45;17.20;24.70
7476;DHT22;3779;49.216;8.650;2023-02-28T01:05:42;17.20;25.50
7476;DHT22;3779;49.216;8.650;2023-02-28T01:08:30;17.20;26.90
7476;DHT22;3779;49.216;8.650;2023-02-28T01:12:11;17.30;24.80
7476;DHT22;3779;49.216;8.650;2023-02-28T01:15:41;17.30;26.40
7476;DHT22;3779;49.216;8.650;2023-02-28T01:18:53;17.30;25.70
7476;DHT22;3779;49.216;8.650;2023-02-28T01:21:52;17.30;24.50
7476;DHT22;3779;49.216;8.650;2023-02-28T01:25:13;17.20;25.50
7476;DHT22;3779;49.216;8.650;2023-02-28T01:28:09;17.20;25.60
7476;DHT22;3779;49.216;8.650;2023-02-28T01:32:06;17.30;25.70
7476;DHT22;3779;49.216;8.650;2023-02-28T01:34:57;17.70;25.50
7476;DHT22;3779;49.216;8.650;2023-02-28T01:37:49;17.30;25.40
7476;DHT22;3779;49.216;8.650;2023-02-28T01:40:41;17.30;25.00
7476;DHT22;3779;49.216;8.650;2023-02-28T01:43:58;17.40;25.00
7476;DHT22;3779;49.216;8.650;2023-02-28T01:46:50;17.30;26.20
7476;DHT22;3779;49.216;8.650;2023-02-28T01:49:39;17.30;26.60
7476;DHT22;3779;49.216;8.650;2023-02-28T01:52:34;17.30;25.40
7476;DHT22;3779;49.216;8.650;2023-02-28T01:55:47;17.40;25.40
7476;DHT22;3779;49.216;8.650;2023-02-28T01:58:44;17.30;26.00
7476;DHT22;3779;49.216;8.650;2023-02-28T02:01:32;17.40;25.00
7476;DHT22;3779;49.216;8.650;2023-02-28T02:04:31;17.20;24.40
7476;DHT22;3779;49.216;8.650;2023-02-28T02:07:48;17.20;25.40
7476;DHT22;3779;49.216;8.650;2023-02-28T02:10:48;17.50;25.10
7476;DHT22;3779;49.216;8.650;2023-02-28T02:35:00;17.20;25.40
7476;DHT22;3779;49.216;8.650;2023-02-28T02:48:29;17.40;26.90
7476;DHT22;3779;49.216;8.650;2023-02-28T02:51:21;17.20;25.20
7476;DHT22;3779;49.216;8.650;2023-02-28T02:54:22;17.30;25.50
7476;DHT22;3779;49.216;8.650;2023-02-28T02:57:14;17.20;25.10
7476;DHT22;3779;49.216;8.650;2023-02-28T03:00:06;17.20;25.50
7476;DHT22;3779;49.216;8.650;2023-02-28T03:03:02;17.20;24.60
7476;DHT22;3779;49.216;8.650;2023-02-28T03:05:57;17.10;26.10
7476;DHT22;3779;49.216;8.650;2023-02-28T03:09:04;17.20;25.00
7476;DHT22;3779;49.216;8.650;2023-02-28T03:11:54;17.40;24.60
7476;DHT22;3779;49.216;8.650;2023-02-28T03:18:10;17.10;27.40
7476;DHT22;3779;49.216;8.650;2023-02-28T03:21:28;17.20;26.00
7476;DHT22;3779;49.216;8.650;2023-02-28T03:24:32;17.20;25.50
7476;DHT22;3779;49.216;8.650;2023-02-28T03:27:59;17.20;25.30
7476;DHT22;3779;49.216;8.650;2023-02-28T03:34:22;17.40;27.60
7476;DHT22;3779;49.216;8.650;2023-02-28T03:37:26;17.50;27.10
7476;DHT22;3779;49.216;8.650;2023-02-28T03:40:21;17.50;25.80
7476;DHT22;3779;49.216;8.650;2023-02-28T03:43:25;17.50;25.20
7476;DHT22;3779;49.216;8.650;2023-02-28T03:46:27;17.50;26.10
7476;DHT22;3779;49.216;8.650;2023-02-28T03:49:21;17.80;25.30
7476;DHT22;3779;49.216;8.650;2023-02-28T03:52:19;17.40;25.10
7476;DHT22;3779;49.216;8.650;2023-02-28T03:55:11;17.30;25.80
7476;DHT22;3779;49.216;8.650;2023-02-28T04:01:12;17.40;25.50
7476;DHT22;3779;49.216;8.650;2023-02-28T04:04:20;17.30;26.50
7476;DHT22;3779;49.216;8.650;2023-02-28T04:07:10;17.40;26.20
7476;DHT22;3779;49.216;8.650;2023-02-28T04:10:03;17.40;25.50
7476;DHT22;3779;49.216;8.650;2023-02-28T04:13:01;17.30;25.20
7476;DHT22;3779;49.216;8.650;2023-02-28T04:16:08;17.30;27.10
7476;DHT22;3779;49.216;8.650;2023-02-28T04:18:58;17.40;25.50
7476;DHT22;3779;49.216;8.650;2023-02-28T04:21:57;17.40;26.30
7476;DHT22;3779;49.216;8.650;2023-02-28T04:24:45;17.30;25.40
7476;DHT22;3779;49.216;8.650;2023-02-28T04:27:42;17.30;24.60
7476;DHT22;3779;49.216;8.650;2023-02-28T04:30:57;17.30;25.30
7476;DHT22;3779;49.216;8.650;2023-02-28T04:34:53;17.40;29.10
7476;DHT22;3779;49.216;8.650;2023-02-28T04:38:19;17.40;28.20
7476;DHT22;3779;49.216;8.650;2023-02-28T04:41:08;17.50;26.80
7476;DHT22;3779;49.216;8.650;2023-02-28T04:44:29;17.60;25.80
7476;DHT22;3779;49.216;8.650;2023-02-28T04:47:58;17.50;28.60
7476;DHT22;3779;49.216;8.650;2023-02-28T04:50:49;17.50;25.80
7476;DHT22;3779;49.216;8.650;2023-02-28T04:53:38;17.50;25.10
7476;DHT22;3779;49.216;8.650;2023-02-28T04:56:48;17.50;26.60
7476;DHT22;3779;49.216;8.650;2023-02-28T04:59:51;17.50;26.80
7476;DHT22;3779;49.216;8.650;2023-02-28T05:02:50;17.60;26.00
7476;DHT22;3779;49.216;8.650;2023-02-28T05:05:54;17.60;29.60
7476;DHT22;3779;49.216;8.650;2023-02-28T05:08:42;17.60;29.50
7476;DHT22;3779;49.216;8.650;2023-02-28T05:11:34;17.60;25.80
7476;DHT22;3779;49.216;8.650;2023-02-28T05:14:45;17.60;29.60
7476;DHT22;3779;49.216;8.650;2023-02-28T05:17:35;17.60;29.10
7476;DHT22;3779;49.216;8.650;2023-02-28T05:20:24;17.70;27.40
7476;DHT22;3779;49.216;8.650;2023-02-28T05:23:15;17.70;25.80
7476;DHT22;3779;49.216;8.650;2023-02-28T05:26:06;17.60;26.30
7476;DHT22;3779;49.216;8.650;2023-02-28T05:29:36;17.60;26.10
7476;DHT22;3779;49.216;8.650;2023-02-28T05:32:49;17.60;31.80
7476;DHT22;3779;49.216;8.650;2023-02-28T05:35:56;17.70;28.20
7476;DHT22;3779;49.216;8.650;2023-02-28T05:39:23;17.70;28.50
7476;DHT22;3779;49.216;8.650;2023-02-28T05:42:13;17.70;25.90
7476;DHT22;3779;49.216;8.650;2023-02-28T05:45:23;17.60;25.70
7476;DHT22;3779;49.216;8.650;2023-02-28T05:48:13;17.50;29.90
7476;DHT22;3779;49.216;8.650;2023-02-28T05:52:30;17.60;31.60
7476;DHT22;3779;49.216;8.650;2023-02-28T05:55:18;17.80;27.20
7476;DHT22;3779;49.216;8.650;2023-02-28T05:58:29;18.10;27.90
7476;DHT22;3779;49.216;8.650;2023-02-28T06:01:46;17.70;26.70
7476;DHT22;3779;49.216;8.650;2023-02-28T06:04:35;17.60;28.00
7476;DHT22;3779;49.216;8.650;2023-02-28T06:07:22;17.60;25.60
7476;DHT22;3779;49.216;8.650;2023-02-28T06:10:11;17.50;25.90
7476;DHT22;3779;49.216;8.650;2023-02-28T06:13:00;17.60;28.10
7476;DHT22;3779;49.216;8.650;2023-02-28T06:15:48;17.60;28.90
7476;DHT22;3779;49.216;8.650;2023-02-28T06:18:34;18.00;26.60
7476;DHT22;3779;49.216;8.650;2023-02-28T06:21:20;17.70;27.20
7476;DHT22;3779;49.216;8.650;2023-02-28T06:24:06;17.60;28.10
7476;DHT22;3779;49.216;8.650;2023-02-28T06:26:53;17.70;32.30
7476;DHT22;3779;49.216;8.650;2023-02-28T06:29:42;17.80;27.10
7476;DHT22;3779;49.216;8.650;2023-02-28T06:32:28;17.80;29.70
7476;DHT22;3779;49.216;8.650;2023-02-28T06:35:14;17.80;25.80
7476;DHT22;3779;49.216;8.650;2023-02-28T06:38:00;17.70;30.20
7476;DHT22;3779;49.216;8.650;2023-02-28T06:40:53;17.80;27.60
7476;DHT22;3779;49.216;8.650;2023-02-28T06:43:41;17.70;28.20
7476;DHT22;3779;49.216;8.650;2023-02-28T06:46:30;17.80;28.60
7476;DHT22;3779;49.216;8.650;2023-02-28T06:49:17;17.70;29.30
7476;DHT22;3779;49.216;8.650;2023-02-28T06:52:05;17.70;27.20
7476;DHT22;3779;49.216;8.650;2023-02-28T06:54:52;17.70;28.30
7476;DHT22;3779;49.216;8.650;2023-02-28T06:57:45;17.70;27.50
7476;DHT22;3779;49.216;8.650;2023-02-28T07:00:31;17.80;29.40
7476;DHT22;3779;49.216;8.650;2023-02-28T07:03:18;17.80;30.40
7476;DHT22;3779;49.216;8.650;2023-02-28T07:06:07;17.90;31.30
7476;DHT22;3779;49.216;8.650;2023-02-28T07:08:54;18.00;27.00
7476;DHT22;3779;49.216;8.650;2023-02-28T07:11:42;17.90;31.70
7476;DHT22;3779;49.216;8.650;2023-02-28T07:14:28;18.00;28.10
7476;DHT22;3779;49.216;8.650;2023-02-28T07:17:14;17.90;31.50
7476;DHT22;3779;49.216;8.650;2023-02-28T07:20:00;18.00;29.20
7476;DHT22;3779;49.216;8.650;2023-02-28T07:22:47;18.00;27.90
7476;DHT22;3779;49.216;8.650;2023-02-28T07:25:41;17.90;25.40
7476;DHT22;3779;49.216;8.650;2023-02-28T07:28:27;18.10;30.10
7476;DHT22;3779;49.216;8.650;2023-02-28T07:31:14;18.20;28.60
7476;DHT22;3779;49.216;8.650;2023-02-28T07:34:00;18.10;27.20
7476;DHT22;3779;49.216;8.650;2023-02-28T07:36:46;17.70;26.90
7476;DHT22;3779;49.216;8.650;2023-02-28T07:39:32;17.70;27.10
7476;DHT22;3779;49.216;8.650;2023-02-28T07:42:18;17.90;24.50
7476;DHT22;3779;49.216;8.650;2023-02-28T07:45:06;17.50;27.00
7476;DHT22;3779;49.216;8.650;2023-02-28T07:47:53;17.40;24.40
7476;DHT22;3779;49.216;8.650;2023-02-28T07:50:40;17.40;25.10
7476;DHT22;3779;49.216;8.650;2023-02-28T07:53:27;17.30;25.00
7476;DHT22;3779;49.216;8.650;2023-02-28T07:56:14;17.30;27.20
7476;DHT22;3779;49.216;8.650;2023-02-28T07:59:01;17.40;25.70
7476;DHT22;3779;49.216;8.650;2023-02-28T08:01:47;17.40;24.90
7476;DHT22;3779;49.216;8.650;2023-02-28T08:04:35;17.40;27.50
7476;DHT22;3779;49.216;8.650;2023-02-28T08:07:21;17.40;24.70
7476;DHT22;3779;49.216;8.650;2023-02-28T08:10:07;17.40;26.40
7476;DHT22;3779;49.216;8.650;2023-02-28T08:12:55;17.50;29.50
7476;DHT22;3779;49.216;8.650;2023-02-28T08:15:42;17.60;27.50
7476;DHT22;3779;49.216;8.650;2023-02-28T08:18:28;17.60;25.60
7476;DHT22;3779;49.216;8.650;2023-02-28T08:21:14;17.60;26.10
7476;DHT22;3779;49.216;8.650;2023-02-28T08:24:00;17.50;27.90
7476;DHT22;3779;49.216;8.650;2023-02-28T08:26:46;17.70;30.40
7476;DHT22;3779;49.216;8.650;2023-02-28T08:29:32;17.70;26.60
7476;DHT22;3779;49.216;8.650;2023-02-28T08:32:19;17.70;26.90
7476;DHT22;3779;49.216;8.650;2023-02-28T08:35:05;17.60;26.50
7476;DHT22;3779;49.216;8.650;2023-02-28T08:37:51;17.70;28.50
7476;DHT22;3779;49.216;8.650;2023-02-28T08:40:37;17.60;28.10
7476;DHT22;3779;49.216;8.650;2023-02-28T08:43:22;17.60;26.50
7476;DHT22;3779;49.216;8.650;2023-02-28T08:46:12;17.60;34.90
7476;DHT22;3779;49.216;8.650;2023-02-28T08:48:59;17.80;26.90
7476;DHT22;3779;49.216;8.650;2023-02-28T08:51:47;17.80;28.10
7476;DHT22;3779;49.216;8.650;2023-02-28T08:54:33;17.80;29.70
7476;DHT22;3779;49.216;8.650;2023-02-28T08:57:20;17.80;25.30
7476;DHT22;3779;49.216;8.650;2023-02-28T09:00:07;17.70;26.10
7476;DHT22;3779;49.216;8.650;2023-02-28T09:02:53;17.70;27.20
7476;DHT22;3779;49.216;8.650;2023-02-28T09:05:40;17.80;27.20
7476;DHT22;3779;49.216;8.650;2023-02-28T09:08:29;17.80;31.70
7476;DHT22;3779;49.216;8.650;2023-02-28T09:11:16;17.90;32.90
7476;DHT22;3779;49.216;8.650;2023-02-28T09:14:02;17.90;31.70
7476;DHT22;3779;49.216;8.650;2023-02-28T09:16:48;18.00;32.30
7476;DHT22;3779;49.216;8.650;2023-02-28T09:19:34;18.00;37.10
7476;DHT22;3779;49.216;8.650;2023-02-28T09:22:20;18.10;35.20
7476;DHT22;3779;49.216;8.650;2023-02-28T09:25:07;18.20;33.70
7476;DHT22;3779;49.216;8.650;2023-02-28T09:27:53;18.20;32.40
7476;DHT22;3779;49.216;8.650;2023-02-28T09:30:39;18.40;36.40
7476;DHT22;3779;49.216;8.650;2023-02-28T09:33:25;18.30;30.10
7476;DHT22;3779;49.216;8.650;2023-02-28T09:36:11;18.30;32.10
7476;DHT22;3779;49.216;8.650;2023-02-28T09:38:58;18.30;27.30
7476;DHT22;3779;49.216;8.650;2023-02-28T09:41:47;18.20;29.80
7476;DHT22;3779;49.216;8.650;2023-02-28T09:44:57;18.20;32.40
7476;DHT22;3779;49.216;8.650;2023-02-28T09:47:46;18.30;31.60
7476;DHT22;3779;49.216;8.650;2023-02-28T09:50:44;18.30;30.80
7476;DHT22;3779;49.216;8.650;2023-02-28T09:53:34;18.40;32.20
7476;DHT22;3779;49.216;8.650;2023-02-28T09:56:39;18.40;29.60
7476;DHT22;3779;49.216;8.650;2023-02-28T10:05:54;18.20;32.10
7476;DHT22;3779;49.216;8.650;2023-02-28T10:09:04;18.30;32.50
7476;DHT22;3779;49.216;8.650;2023-02-28T10:11:54;18.30;33.00
7476;DHT22;3779;49.216;8.650;2023-02-28T10:14:45;18.30;36.80
7476;DHT22;3779;49.216;8.650;2023-02-28T10:17:41;18.40;34.40
7476;DHT22;3779;49.216;8.650;2023-02-28T10:20:31;18.50;27.20
7476;DHT22;3779;49.216;8.650;2023-02-28T10:23:24;18.40;23.80
7476;DHT22;3779;49.216;8.650;2023-02-28T10:26:16;18.30;22.70
7476;DHT22;3779;49.216;8.650;2023-02-28T10:29:02;18.00;22.50
7476;DHT22;3779;49.216;8.650;2023-02-28T10:31:51;17.90;22.10
7476;DHT22;3779;49.216;8.650;2023-02-28T10:34:37;17.80;21.90
7476;DHT22;3779;49.216;8.650;2023-02-28T10:37:23;17.70;25.70
7476;DHT22;3779;49.216;8.650;2023-02-28T10:46:15;17.90;30.50
7476;DHT22;3779;49.216;8.650;2023-02-28T10:49:20;18.00;27.90
7476;DHT22;3779;49.216;8.650;2023-02-28T10:52:08;18.00;26.00
7476;DHT22;3779;49.216;8.650;2023-02-28T10:55:15;18.00;25.20
7476;DHT22;3779;49.216;8.650;2023-02-28T10:58:01;17.80;24.70
7476;DHT22;3779;49.216;8.650;2023-02-28T11:00:48;17.80;27.40
7476;DHT22;3779;49.216;8.650;2023-02-28T11:03:36;17.80;26.90
7476;DHT22;3779;49.216;8.650;2023-02-28T11:06:28;17.90;28.70
7476;DHT22;3779;49.216;8.650;2023-02-28T11:09:32;17.90;27.70
7476;DHT22;3779;49.216;8.650;2023-02-28T11:12:39;17.90;35.10
7476;DHT22;3779;49.216;8.650;2023-02-28T11:15:30;18.00;32.10
7476;DHT22;3779;49.216;8.650;2023-02-28T11:18:29;18.20;29.40
7476;DHT22;3779;49.216;8.650;2023-02-28T11:24:37;18.20;33.30
7476;DHT22;3779;49.216;8.650;2023-02-28T11:33:28;18.40;28.30
7476;DHT22;3779;49.216;8.650;2023-02-28T11:36:31;18.30;25.50
7476;DHT22;3779;49.216;8.650;2023-02-28T11:39:17;18.10;26.10
7476;DHT22;3779;49.216;8.650;2023-02-28T11:48:09;17.90;26.40
7476;DHT22;3779;49.216;8.650;2023-02-28T11:56:57;18.10;30.30
7476;DHT22;3779;49.216;8.650;2023-02-28T12:15:42;18.10;25.90
7476;DHT22;3779;49.216;8.650;2023-02-28T12:18:56;18.00;25.40
7476;DHT22;3779;49.216;8.650;2023-02-28T12:22:02;17.90;28.50
7476;DHT22;3779;49.216;8.650;2023-02-28T12:25:01;18.00;29.20
7476;DHT22;3779;49.216;8.650;2023-02-28T12:27:49;18.00;26.80
7476;DHT22;3779;49.216;8.650;2023-02-28T12:30:49;18.00;25.30
7476;DHT22;3779;49.216;8.650;2023-02-28T12:33:40;18.00;26.90
7476;DHT22;3779;49.216;8.650;2023-02-28T12:36:28;18.00;23.90
7476;DHT22;3779;49.216;8.650;2023-02-28T12:39:20;17.90;26.70
7476;DHT22;3779;49.216;8.650;2023-02-28T12:42:29;17.90;25.00
7476;DHT22;3779;49.216;8.650;2023-02-28T12:45:27;17.90;24.30
7476;DHT22;3779;49.216;8.650;2023-02-28T12:48:28;17.80;25.00
7476;DHT22;3779;49.216;8.650;2023-02-28T12:51:16;17.80;26.30
7476;DHT22;3779;49.216;8.650;2023-02-28T12:54:14;17.80;24.80
7476;DHT22;3779;49.216;8.650;2023-02-28T13:00:01;17.70;23.80
7476;DHT22;3779;49.216;8.650;2023-02-28T13:09:14;17.80;28.20
7476;DHT22;3779;49.216;8.650;2023-02-28T13:12:01;17.90;25.80
7476;DHT22;3779;49.216;8.650;2023-02-28T13:15:23;18.00;28.80
7476;DHT22;3779;49.216;8.650;2023-02-28T13:18:28;18.00;30.80
7476;DHT22;3779;49.216;8.650;2023-02-28T13:21:27;18.40;25.90
7476;DHT22;3779;49.216;8.650;2023-02-28T13:27:42;18.00;30.50
7476;DHT22;3779;49.216;8.650;2023-02-28T13:37:36;18.00;27.40
7476;DHT22;3779;49.216;8.650;2023-02-28T13:40:30;18.00;29.90
7476;DHT22;3779;49.216;8.650;2023-02-28T13:43:18;18.00;28.50
7476;DHT22;3779;49.216;8.650;2023-02-28T13:46:15;18.10;25.60
7476;DHT22;3779;49.216;8.650;2023-02-28T13:49:26;18.00;26.40
7476;DHT22;3779;49.216;8.650;2023-02-28T13:52:22;18.00;27.10
7476;DHT22;3779;49.216;8.650;2023-02-28T13:55:25;18.10;30.90
7476;DHT22;3779;49.216;8.650;2023-02-28T14:07:44;18.20;32.50
7476;DHT22;3779;49.216;8.650;2023-02-28T14:10:43;18.20;35.40
7476;DHT22;3779;49.216;8.650;2023-02-28T14:13:45;18.30;35.30
7476;DHT22;3779;49.216;8.650;2023-02-28T14:16:48;18.40;30.70
7476;DHT22;3779;49.216;8.650;2023-02-28T14:19:40;18.40;35.30
7476;DHT22;3779;49.216;8.650;2023-02-28T14:22:52;18.40;33.10
7476;DHT22;3779;49.216;8.650;2023-02-28T14:29:39;18.40;34.60
7476;DHT22;3779;49.216;8.650;2023-02-28T14:39:17;18.40;30.90
7476;DHT22;3779;49.216;8.650;2023-02-28T14:42:33;18.30;32.80
7476;DHT22;3779;49.216;8.650;2023-02-28T14:45:35;18.40;32.60
7476;DHT22;3779;49.216;8.650;2023-02-28T14:48:26;18.40;31.10
7476;DHT22;3779;49.216;8.650;2023-02-28T14:51:18;18.40;34.20
7476;DHT22;3779;49.216;8.650;2023-02-28T14:54:14;18.40;33.50
7476;DHT22;3779;49.216;8.650;2023-02-28T14:57:38;18.40;30.90
7476;DHT22;3779;49.216;8.650;2023-02-28T15:00:31;18.50;29.40
7476;DHT22;3779;49.216;8.650;2023-02-28T15:03:35;18.30;34.30
7476;DHT22;3779;49.216;8.650;2023-02-28T15:06:23;18.40;34.70
7476;DHT22;3779;49.216;8.650;2023-02-28T15:09:36;18.40;33.60
7476;DHT22;3779;49.216;8.650;2023-02-28T15:17:42;18.50;35.00
7476;DHT22;3779;49.216;8.650;2023-02-28T15:21:06;18.50;32.50
7476;DHT22;3779;49.216;8.650;2023-02-28T15:27:32;18.40;36.70
7476;DHT22;3779;49.216;8.650;2023-02-28T15:30:30;18.50;31.00
7476;DHT22;3779;49.216;8.650;2023-02-28T15:33:22;18.50;29.90
7476;DHT22;3779;49.216;8.650;2023-02-28T15:36:17;18.40;32.30
7476;DHT22;3779;49.216;8.650;2023-02-28T15:39:41;18.40;32.30
7476;DHT22;3779;49.216;8.650;2023-02-28T15:43:19;18.50;32.60
7476;DHT22;3779;49.216;8.650;2023-02-28T15:46:15;18.40;34.60
7476;DHT22;3779;49.216;8.650;2023-02-28T15:49:36;18.40;33.50
7476;DHT22;3779;49.216;8.650;2023-02-28T15:53:19;18.40;33.50
7476;DHT22;3779;49.216;8.650;2023-02-28T15:56:28;18.40;31.30
7476;DHT22;3779;49.216;8.650;2023-02-28T15:59:54;18.40;30.00
7476;DHT22;3779;49.216;8.650;2023-02-28T16:03:26;18.40;32.40
7476;DHT22;3779;49.216;8.650;2023-02-28T16:06:30;18.40;34.50
7476;DHT22;3779;49.216;8.650;2023-02-28T16:09:25;18.40;31.10
7476;DHT22;3779;49.216;8.650;2023-02-28T16:12:14;18.40;31.60
7476;DHT22;3779;49.216;8.650;2023-02-28T16:15:25;18.40;29.80
7476;DHT22;3779;49.216;8.650;2023-02-28T16:18:12;18.40;32.30
7476;DHT22;3779;49.216;8.650;2023-02-28T16:21:00;18.40;29.50
7476;DHT22;3779;49.216;8.650;2023-02-28T16:23:48;18.40;30.70
7476;DHT22;3779;49.216;8.650;2023-02-28T16:26:36;18.40;28.60
7476;DHT22;3779;49.216;8.650;2023-02-28T16:29:34;18.40;28.00
7476;DHT22;3779;49.216;8.650;2023-02-28T16:32:23;18.30;27.30
7476;DHT22;3779;49.216;8.650;2023-02-28T16:35:11;18.30;30.40
7476;DHT22;3779;49.216;8.650;2023-02-28T16:38:01;18.30;29.80
7476;DHT22;3779;49.216;8.650;2023-02-28T16:40:59;18.30;33.80
7476;DHT22;3779;49.216;8.650;2023-02-28T16:43:48;18.40;31.20
7476;DHT22;3779;49.216;8.650;2023-02-28T16:46:39;18.40;28.70
7476;DHT22;3779;49.216;8.650;2023-02-28T16:49:26;18.40;27.40
7476;DHT22;3779;49.216;8.650;2023-02-28T16:52:12;18.40;28.10
7476;DHT22;3779;49.216;8.650;2023-02-28T16:54:59;18.30;31.20
7476;DHT22;3779;49.216;8.650;2023-02-28T16:57:53;18.40;30.00
7476;DHT22;3779;49.216;8.650;2023-02-28T17:00:41;18.30;27.80
7476;DHT22;3779;49.216;8.650;2023-02-28T17:03:31;18.20;31.80
7476;DHT22;3779;49.216;8.650;2023-02-28T17:06:24;18.30;33.10
7476;DHT22;3779;49.216;8.650;2023-02-28T17:09:19;18.40;30.50
7476;DHT22;3779;49.216;8.650;2023-02-28T17:12:06;18.40;28.50
7476;DHT22;3779;49.216;8.650;2023-02-28T17:14:52;18.40;28.80
7476;DHT22;3779;49.216;8.650;2023-02-28T17:17:39;18.30;27.90
7476;DHT22;3779;49.216;8.650;2023-02-28T17:20:25;18.20;26.70
7476;DHT22;3779;49.216;8.650;2023-02-28T17:23:14;18.20;27.80
7476;DHT22;3779;49.216;8.650;2023-02-28T17:26:02;18.20;26.30
7476;DHT22;3779;49.216;8.650;2023-02-28T17:28:56;18.00;25.80
7476;DHT22;3779;49.216;8.650;2023-02-28T17:31:43;17.90;26.70
7476;DHT22;3779;49.216;8.650;2023-02-28T17:34:29;17.90;25.90
7476;DHT22;3779;49.216;8.650;2023-02-28T17:37:16;17.90;28.30
7476;DHT22;3779;49.216;8.650;2023-02-28T17:40:03;18.00;26.80
7476;DHT22;3779;49.216;8.650;2023-02-28T17:42:52;18.00;26.90
7476;DHT22;3779;49.216;8.650;2023-02-28T17:45:54;17.90;26.20
7476;DHT22;3779;49.216;8.650;2023-02-28T17:48:52;17.90;26.50
7476;DHT22;3779;49.216;8.650;2023-02-28T17:51:41;17.90;26.40
7476;DHT22;3779;49.216;8.650;2023-02-28T17:54:27;17.90;26.60
7476;DHT22;3779;49.216;8.650;2023-02-28T17:57:15;17.90;26.40
7476;DHT22;3779;49.216;8.650;2023-02-28T18:00:02;17.90;26.20
7476;DHT22;3779;49.216;8.650;2023-02-28T18:02:58;17.80;25.60
7476;DHT22;3779;49.216;8.650;2023-02-28T18:05:43;17.70;25.60
7476;DHT22;3779;49.216;8.650;2023-02-28T18:08:31;17.70;25.50
7476;DHT22;3779;49.216;8.650;2023-02-28T18:11:22;17.60;25.90
7476;DHT22;3779;49.216;8.650;2023-02-28T18:14:09;17.60;25.70
7476;DHT22;3779;49.216;8.650;2023-02-28T18:16:56;17.60;25.70
7476;DHT22;3779;49.216;8.650;2023-02-28T18:19:42;17.60;26.00
7476;DHT22;3779;49.216;8.650;2023-02-28T18:22:30;17.90;26.00
7476;DHT22;3779;49.216;8.650;2023-02-28T18:25:16;17.60;26.20
7476;DHT22;3779;49.216;8.650;2023-02-28T18:28:02;17.60;25.50
7476;DHT22;3779;49.216;8.650;2023-02-28T18:30:51;17.50;25.40
7476;DHT22;3779;49.216;8.650;2023-02-28T18:33:38;17.50;25.70
7476;DHT22;3779;49.216;8.650;2023-02-28T18:36:25;17.50;25.50
7476;DHT22;3779;49.216;8.650;2023-02-28T18:39:14;17.50;25.90
7476;DHT22;3779;49.216;8.650;2023-02-28T18:42:00;17.50;29.60
7476;DHT22;3779;49.216;8.650;2023-02-28T18:44:47;17.90;26.90
7476;DHT22;3779;49.216;8.650;2023-02-28T18:47:34;17.70;26.30
7476;DHT22;3779;49.216;8.650;2023-02-28T18:50:20;17.60;26.30
7476;DHT22;3779;49.216;8.650;2023-02-28T18:53:06;17.60;25.40
7476;DHT22;3779;49.216;8.650;2023-02-28T18:55:52;17.60;25.50
7476;DHT22;3779;49.216;8.650;2023-02-28T18:58:39;17.50;25.60
7476;DHT22;3779;49.216;8.650;2023-02-28T19:01:27;17.70;25.40
7476;DHT22;3779;49.216;8.650;2023-02-28T19:04:15;17.40;25.50
7476;DHT22;3779;49.216;8.650;2023-02-28T19:07:02;17.40;25.50
7476;DHT22;3779;49.216;8.650;2023-02-28T19:09:48;17.40;25.30
7476;DHT22;3779;49.216;8.650;2023-02-28T19:12:35;17.40;25.30
7476;DHT22;3779;49.216;8.650;2023-02-28T19:15:22;17.40;25.30
7476;DHT22;3779;49.216;8.650;2023-02-28T19:18:08;17.40;24.50
7476;DHT22;3779;49.216;8.650;2023-02-28T19:20:57;17.40;25.30
7476;DHT22;3779;49.216;8.650;2023-02-28T19:23:44;17.30;25.30
7476;DHT22;3779;49.216;8.650;2023-02-28T19:26:30;17.30;25.10
7476;DHT22;3779;49.216;8.650;2023-02-28T19:29:17;17.30;25.00
7476;DHT22;3779;49.216;8.650;2023-02-28T19:32:03;17.30;24.60
7476;DHT22;3779;49.216;8.650;2023-02-28T19:34:49;17.30;24.90
7476;DHT22;3779;49.216;8.650;2023-02-28T19:37:37;17.30;25.10
7476;DHT22;3779;49.216;8.650;2023-02-28T19:40:24;17.20;25.20
7476;DHT22;3779;49.216;8.650;2023-02-28T19:43:12;17.20;24.80
7476;DHT22;3779;49.216;8.650;2023-02-28T19:45:59;17.20;25.20
7476;DHT22;3779;49.216;8.650;2023-02-28T19:48:45;17.10;25.00
7476;DHT22;3779;49.216;8.650;2023-02-28T19:51:33;17.10;24.70
7476;DHT22;3779;49.216;8.650;2023-02-28T19:54:19;17.10;25.30
7476;DHT22;3779;49.216;8.650;2023-02-28T19:57:06;17.40;24.90
7476;DHT22;3779;49.216;8.650;2023-02-28T19:59:52;17.10;24.70
7476;DHT22;3779;49.216;8.650;2023-02-28T20:02:38;17.00;24.80
7476;DHT22;3779;49.216;8.650;2023-02-28T20:05:25;17.00;25.00
7476;DHT22;3779;49.216;8.650;2023-02-28T20:08:11;17.00;24.70
7476;DHT22;3779;49.216;8.650;2023-02-28T20:11:23;17.00;25.00
7476;DHT22;3779;49.216;8.650;2023-02-28T20:14:13;16.90;25.30
7476;DHT22;3779;49.216;8.650;2023-02-28T20:16:59;16.90;24.80
7476;DHT22;3779;49.216;8.650;2023-02-28T20:19:45;16.90;24.80
7476;DHT22;3779;49.216;8.650;2023-02-28T20:22:32;16.90;24.80
7476;DHT22;3779;49.216;8.650;2023-02-28T20:25:18;16.90;25.00
7476;DHT22;3779;49.216;8.650;2023-02-28T20:28:05;16.90;24.90
7476;DHT22;3779;49.216;8.650;2023-02-28T20:30:51;16.90;25.00
7476;DHT22;3779;49.216;8.650;2023-02-28T20:33:39;16.90;25.00
7476;DHT22;3779;49.216;8.650;2023-02-28T20:36:25;16.90;25.00
7476;DHT22;3779;49.216;8.650;2023-02-28T20:39:11;16.90;24.80
7476;DHT22;3779;49.216;8.650;2023-02-28T20:41:58;16.90;24.90
7476;DHT22;3779;49.216;8.650;2023-02-28T20:44:44;16.90;24.80
7476;DHT22;3779;49.216;8.650;2023-02-28T20:47:30;16.90;24.80
7476;DHT22;3779;49.216;8.650;2023-02-28T20:50:16;16.90;24.60
7476;DHT22;3779;49.216;8.650;2023-02-28T20:53:02;16.90;24.60
7476;DHT22;3779;49.216;8.650;2023-02-28T20:56:04;16.90;24.70
7476;DHT22;3779;49.216;8.650;2023-02-28T20:58:52;16.90;25.10
7476;DHT22;3779;49.216;8.650;2023-02-28T21:01:40;16.90;24.80
7476;DHT22;3779;49.216;8.650;2023-02-28T21:04:30;16.90;24.90
7476;DHT22;3779;49.216;8.650;2023-02-28T21:07:16;16.90;24.70
7476;DHT22;3779;49.216;8.650;2023-02-28T21:10:02;16.90;24.60
7476;DHT22;3779;49.216;8.650;2023-02-28T21:12:49;16.90;24.50
7476;DHT22;3779;49.216;8.650;2023-02-28T21:15:38;16.90;24.50
7476;DHT22;3779;49.216;8.650;2023-02-28T21:18:24;16.90;24.60
7476;DHT22;3779;49.216;8.650;2023-02-28T21:21:12;16.90;24.90